sensor_id;sensor_type;location;lat;lon;timestamp;P1;durP1;ratioP1;P2;durP2;ratioP2
11443;SDS011;5778;47.856;12.154;2023-04-08T00:01:44;9.30;;;7.17;;
11443;SDS011;5778;47.856;12.154;2023-04-08T00:04:11;8.03;;;7.23;;
11443;SDS011;5778;47.856;12.154;2023-04-08T00:06:40;7.90;;;7.10;;
11443;SDS011;5778;47.856;12.154;2023-04-08T00:09:07;8.07;;;7.27;;
11443;SDS011;5778;47.856;12.154;2023-04-08T00:11:33;7.33;;;6.57;;
11443;SDS011;5778;47.856;12.154;2023-04-08T00:14:03;8.57;;;7.67;;
11443;SDS011;5778;47.856;12.154;2023-04-08T00:16:30;11.70;;;8.47;;
11443;SDS011;5778;47.856;12.154;2023-04-08T00:18:57;16.77;;;11.63;;
11443;SDS011;5778;47.856;12.154;2023-04-08T00:21:24;11.73;;;8.57;;
11443;SDS011;5778;47.856;12.154;2023-04-08T00:23:51;9.53;;;8.13;;
11443;SDS011;5778;47.856;12.154;2023-04-08T00:26:20;10.57;;;8.20;;
11443;SDS011;5778;47.856;12.154;2023-04-08T00:28:47;8.80;;;7.90;;
11443;SDS011;5778;47.856;12.154;2023-04-08T00:31:15;8.90;;;7.47;;
11443;SDS011;5778;47.856;12.154;2023-04-08T00:33:42;10.77;;;8.37;;
11443;SDS011;5778;47.856;12.154;2023-04-08T00:36:09;8.90;;;7.60;;
11443;SDS011;5778;47.856;12.154;2023-04-08T00:38:38;8.07;;;6.70;;
11443;SDS011;5778;47.856;12.154;2023-04-08T00:41:05;9.97;;;7.57;;
11443;SDS011;5778;47.856;12.154;2023-04-08T00:43:32;8.10;;;6.90;;
11443;SDS011;5778;47.856;12.154;2023-04-08T00:46:00;8.10;;;7.00;;
11443;SDS011;5778;47.856;12.154;2023-04-08T00:48:29;11.33;;;8.00;;
11443;SDS011;5778;47.856;12.154;2023-04-08T00:50:56;9.20;;;7.90;;
11443;SDS011;5778;47.856;12.154;2023-04-08T00:53:23;9.40;;;7.53;;
11443;SDS011;5778;47.856;12.154;2023-04-08T00:55:50;8.80;;;7.30;;
11443;SDS011;5778;47.856;12.154;2023-04-08T00:58:17;8.10;;;7.30;;
11443;SDS011;5778;47.856;12.154;2023-04-08T01:00:45;7.60;;;6.80;;
11443;SDS011;5778;47.856;12.154;2023-04-08T01:03:23;8.53;;;7.23;;
11443;SDS011;5778;47.856;12.154;2023-04-08T01:05:59;8.43;;;7.57;;
11443;SDS011;5778;47.856;12.154;2023-04-08T01:08:32;9.17;;;7.97;;
11443;SDS011;5778;47.856;12.154;2023-04-08T01:11:03;7.97;;;6.83;;
11443;SDS011;5778;47.856;12.154;2023-04-08T01:13:38;9.43;;;7.40;;
11443;SDS011;5778;47.856;12.154;2023-04-08T01:16:07;8.13;;;7.33;;
11443;SDS011;5778;47.856;12.154;2023-04-08T01:18:36;8.53;;;7.70;;
11443;SDS011;5778;47.856;12.154;2023-04-08T01:21:06;9.03;;;7.50;;
11443;SDS011;5778;47.856;12.154;2023-04-08T01:23:36;7.83;;;7.00;;
11443;SDS011;5778;47.856;12.154;2023-04-08T01:26:20;8.87;;;6.93;;
11443;SDS011;5778;47.856;12.154;2023-04-08T01:28:51;7.77;;;6.70;;
11443;SDS011;5778;47.856;12.154;2023-04-08T01:31:20;7.70;;;6.90;;
11443;SDS011;5778;47.856;12.154;2023-04-08T01:33:49;8.00;;;7.20;;
11443;SDS011;5778;47.856;12.154;2023-04-08T01:36:19;7.63;;;6.87;;
11443;SDS011;5778;47.856;12.154;2023-04-08T01:38:46;8.13;;;6.93;;
11443;SDS011;5778;47.856;12.154;2023-04-08T01:41:16;8.87;;;6.53;;
11443;SDS011;5778;47.856;12.154;2023-04-08T01:43:46;8.30;;;6.97;;
11443;SDS011;5778;47.856;12.154;2023-04-08T01:46:14;8.40;;;6.90;;
11443;SDS011;5778;47.856;12.154;2023-04-08T01:48:41;7.73;;;6.97;;
11443;SDS011;5778;47.856;12.154;2023-04-08T01:51:09;8.60;;;6.70;;
11443;SDS011;5778;47.856;12.154;2023-04-08T01:53:36;7.47;;;6.67;;
11443;SDS011;5778;47.856;12.154;2023-04-08T01:56:05;7.70;;;6.90;;
11443;SDS011;5778;47.856;12.154;2023-04-08T01:58:38;7.80;;;7.07;;
11443;SDS011;5778;47.856;12.154;2023-04-08T02:01:09;8.23;;;7.43;;
11443;SDS011;5778;47.856;12.154;2023-04-08T02:03:37;6.83;;;6.17;;
11443;SDS011;5778;47.856;12.154;2023-04-08T02:06:05;7.23;;;6.40;;
11443;SDS011;5778;47.856;12.154;2023-04-08T02:08:33;7.00;;;6.30;;
11443;SDS011;5778;47.856;12.154;2023-04-08T02:11:00;7.17;;;6.47;;
11443;SDS011;5778;47.856;12.154;2023-04-08T02:13:29;7.10;;;6.47;;
11443;SDS011;5778;47.856;12.154;2023-04-08T02:16:01;9.33;;;6.93;;
11443;SDS011;5778;47.856;12.154;2023-04-08T02:18:31;8.37;;;6.60;;
11443;SDS011;5778;47.856;12.154;2023-04-08T02:21:03;7.77;;;6.97;;
11443;SDS011;5778;47.856;12.154;2023-04-08T02:23:36;7.27;;;6.57;;
11443;SDS011;5778;47.856;12.154;2023-04-08T02:26:06;6.90;;;6.20;;
11443;SDS011;5778;47.856;12.154;2023-04-08T02:28:34;7.13;;;6.43;;
11443;SDS011;5778;47.856;12.154;2023-04-08T02:31:04;8.83;;;6.57;;
11443;SDS011;5778;47.856;12.154;2023-04-08T02:33:33;7.20;;;6.50;;
11443;SDS011;5778;47.856;12.154;2023-04-08T02:36:01;7.00;;;6.30;;
11443;SDS011;5778;47.856;12.154;2023-04-08T02:38:29;7.57;;;6.83;;
11443;SDS011;5778;47.856;12.154;2023-04-08T02:40:56;7.33;;;6.57;;
11443;SDS011;5778;47.856;12.154;2023-04-08T02:43:24;7.10;;;6.40;;
11443;SDS011;5778;47.856;12.154;2023-04-08T02:45:56;7.00;;;6.30;;
11443;SDS011;5778;47.856;12.154;2023-04-08T02:48:25;6.80;;;6.20;;
11443;SDS011;5778;47.856;12.154;2023-04-08T02:50:52;6.70;;;5.80;;
11443;SDS011;5778;47.856;12.154;2023-04-08T02:53:20;6.87;;;6.17;;
11443;SDS011;5778;47.856;12.154;2023-04-08T02:55:47;7.53;;;6.60;;
11443;SDS011;5778;47.856;12.154;2023-04-08T02:58:14;6.73;;;5.60;;
11443;SDS011;5778;47.856;12.154;2023-04-08T03:00:41;7.43;;;6.00;;
11443;SDS011;5778;47.856;12.154;2023-04-08T03:03:08;6.97;;;6.23;;
11443;SDS011;5778;47.856;12.154;2023-04-08T03:05:36;6.63;;;5.97;;
11443;SDS011;5778;47.856;12.154;2023-04-08T03:08:03;6.70;;;5.90;;
11443;SDS011;5778;47.856;12.154;2023-04-08T03:10:31;7.43;;;6.50;;
11443;SDS011;5778;47.856;12.154;2023-04-08T03:12:59;6.77;;;6.07;;
11443;SDS011;5778;47.856;12.154;2023-04-08T03:15:26;7.67;;;6.13;;
11443;SDS011;5778;47.856;12.154;2023-04-08T03:17:53;6.47;;;5.87;;
11443;SDS011;5778;47.856;12.154;2023-04-08T03:20:20;6.67;;;6.07;;
11443;SDS011;5778;47.856;12.154;2023-04-08T03:22:48;8.00;;;7.20;;
11443;SDS011;5778;47.856;12.154;2023-04-08T03:25:15;8.03;;;7.20;;
11443;SDS011;5778;47.856;12.154;2023-04-08T03:27:42;6.87;;;6.20;;
11443;SDS011;5778;47.856;12.154;2023-04-08T03:30:10;7.07;;;6.13;;
11443;SDS011;5778;47.856;12.154;2023-04-08T03:32:36;6.97;;;5.97;;
11443;SDS011;5778;47.856;12.154;2023-04-08T03:35:03;7.13;;;6.10;;
11443;SDS011;5778;47.856;12.154;2023-04-08T03:37:31;8.10;;;6.57;;
11443;SDS011;5778;47.856;12.154;2023-04-08T03:39:59;7.40;;;6.70;;
11443;SDS011;5778;47.856;12.154;2023-04-08T03:42:26;7.20;;;6.50;;
11443;SDS011;5778;47.856;12.154;2023-04-08T03:44:53;7.77;;;6.27;;
11443;SDS011;5778;47.856;12.154;2023-04-08T03:47:20;7.60;;;6.30;;
11443;SDS011;5778;47.856;12.154;2023-04-08T03:49:46;7.13;;;6.40;;
11443;SDS011;5778;47.856;12.154;2023-04-08T03:52:13;6.83;;;6.13;;
11443;SDS011;5778;47.856;12.154;2023-04-08T03:54:41;7.30;;;6.27;;
11443;SDS011;5778;47.856;12.154;2023-04-08T03:57:09;7.13;;;6.43;;
11443;SDS011;5778;47.856;12.154;2023-04-08T03:59:37;7.20;;;6.50;;
11443;SDS011;5778;47.856;12.154;2023-04-08T04:02:05;6.90;;;6.17;;
11443;SDS011;5778;47.856;12.154;2023-04-08T04:04:32;7.47;;;6.30;;
11443;SDS011;5778;47.856;12.154;2023-04-08T04:07:01;6.77;;;6.07;;
11443;SDS011;5778;47.856;12.154;2023-04-08T04:09:28;7.30;;;6.37;;
11443;SDS011;5778;47.856;12.154;2023-04-08T04:11:55;7.03;;;6.33;;
11443;SDS011;5778;47.856;12.154;2023-04-08T04:14:27;7.47;;;5.93;;
11443;SDS011;5778;47.856;12.154;2023-04-08T04:16:54;7.43;;;6.73;;
11443;SDS011;5778;47.856;12.154;2023-04-08T04:19:21;6.77;;;6.07;;
11443;SDS011;5778;47.856;12.154;2023-04-08T04:21:48;6.77;;;6.17;;
11443;SDS011;5778;47.856;12.154;2023-04-08T04:24:15;6.97;;;6.10;;
11443;SDS011;5778;47.856;12.154;2023-04-08T04:26:42;7.20;;;6.50;;
11443;SDS011;5778;47.856;12.154;2023-04-08T04:29:09;6.77;;;5.80;;
11443;SDS011;5778;47.856;12.154;2023-04-08T04:31:37;7.60;;;6.43;;
11443;SDS011;5778;47.856;12.154;2023-04-08T04:34:07;7.07;;;6.37;;
11443;SDS011;5778;47.856;12.154;2023-04-08T04:36:33;7.23;;;6.53;;
11443;SDS011;5778;47.856;12.154;2023-04-08T04:39:00;7.63;;;6.30;;
11443;SDS011;5778;47.856;12.154;2023-04-08T04:41:27;6.83;;;6.13;;
11443;SDS011;5778;47.856;12.154;2023-04-08T04:43:55;7.90;;;6.60;;
11443;SDS011;5778;47.856;12.154;2023-04-08T04:46:22;8.20;;;6.13;;
11443;SDS011;5778;47.856;12.154;2023-04-08T04:48:52;6.33;;;5.73;;
11443;SDS011;5778;47.856;12.154;2023-04-08T04:51:19;7.33;;;6.20;;
11443;SDS011;5778;47.856;12.154;2023-04-08T04:53:45;7.03;;;6.33;;
11443;SDS011;5778;47.856;12.154;2023-04-08T04:56:13;8.20;;;7.03;;
11443;SDS011;5778;47.856;12.154;2023-04-08T04:58:40;8.97;;;7.70;;
11443;SDS011;5778;47.856;12.154;2023-04-08T05:01:07;7.87;;;7.13;;
11443;SDS011;5778;47.856;12.154;2023-04-08T05:03:34;8.73;;;7.87;;
11443;SDS011;5778;47.856;12.154;2023-04-08T05:06:02;9.23;;;7.53;;
11443;SDS011;5778;47.856;12.154;2023-04-08T05:08:29;8.07;;;7.13;;
11443;SDS011;5778;47.856;12.154;2023-04-08T05:10:57;7.60;;;6.80;;
11443;SDS011;5778;47.856;12.154;2023-04-08T05:13:27;7.63;;;6.83;;
11443;SDS011;5778;47.856;12.154;2023-04-08T05:15:55;7.37;;;6.63;;
11443;SDS011;5778;47.856;12.154;2023-04-08T05:18:22;8.63;;;7.00;;
11443;SDS011;5778;47.856;12.154;2023-04-08T05:20:49;25.43;;;13.60;;
11443;SDS011;5778;47.856;12.154;2023-04-08T05:23:27;22.20;;;13.10;;
11443;SDS011;5778;47.856;12.154;2023-04-08T05:25:54;12.27;;;8.13;;
11443;SDS011;5778;47.856;12.154;2023-04-08T05:28:21;7.70;;;6.57;;
11443;SDS011;5778;47.856;12.154;2023-04-08T05:30:49;6.80;;;6.20;;
11443;SDS011;5778;47.856;12.154;2023-04-08T05:36:40;9.27;;;7.37;;
11443;SDS011;5778;47.856;12.154;2023-04-08T05:39:09;8.47;;;7.67;;
11443;SDS011;5778;47.856;12.154;2023-04-08T05:41:36;8.43;;;7.63;;
11443;SDS011;5778;47.856;12.154;2023-04-08T05:46:57;8.53;;;6.87;;
11443;SDS011;5778;47.856;12.154;2023-04-08T05:49:24;7.50;;;6.80;;
11443;SDS011;5778;47.856;12.154;2023-04-08T05:51:51;7.97;;;7.27;;
11443;SDS011;5778;47.856;12.154;2023-04-08T05:54:36;8.73;;;7.07;;
11443;SDS011;5778;47.856;12.154;2023-04-08T05:57:04;7.17;;;6.20;;
11443;SDS011;5778;47.856;12.154;2023-04-08T05:59:31;7.33;;;6.63;;
11443;SDS011;5778;47.856;12.154;2023-04-08T06:01:58;7.73;;;6.57;;
11443;SDS011;5778;47.856;12.154;2023-04-08T06:04:28;7.30;;;6.60;;
11443;SDS011;5778;47.856;12.154;2023-04-08T06:06:56;7.07;;;6.37;;
11443;SDS011;5778;47.856;12.154;2023-04-08T06:09:26;8.33;;;6.63;;
11443;SDS011;5778;47.856;12.154;2023-04-08T06:11:55;7.23;;;6.43;;
11443;SDS011;5778;47.856;12.154;2023-04-08T06:14:31;7.20;;;6.50;;
11443;SDS011;5778;47.856;12.154;2023-04-08T06:16:59;8.23;;;7.03;;
11443;SDS011;5778;47.856;12.154;2023-04-08T06:19:26;8.57;;;6.87;;
11443;SDS011;5778;47.856;12.154;2023-04-08T06:21:53;7.10;;;6.50;;
11443;SDS011;5778;47.856;12.154;2023-04-08T06:24:24;8.20;;;7.30;;
11443;SDS011;5778;47.856;12.154;2023-04-08T06:26:52;8.30;;;7.40;;
11443;SDS011;5778;47.856;12.154;2023-04-08T06:29:20;7.97;;;7.23;;
11443;SDS011;5778;47.856;12.154;2023-04-08T06:31:48;8.00;;;7.20;;
11443;SDS011;5778;47.856;12.154;2023-04-08T06:34:31;9.90;;;7.30;;
11443;SDS011;5778;47.856;12.154;2023-04-08T06:36:58;8.70;;;7.80;;
11443;SDS011;5778;47.856;12.154;2023-04-08T06:39:25;8.77;;;7.63;;
11443;SDS011;5778;47.856;12.154;2023-04-08T06:41:52;9.53;;;8.63;;
11443;SDS011;5778;47.856;12.154;2023-04-08T06:44:43;9.73;;;8.53;;
11443;SDS011;5778;47.856;12.154;2023-04-08T06:47:09;11.70;;;8.53;;
11443;SDS011;5778;47.856;12.154;2023-04-08T06:49:38;10.67;;;8.23;;
11443;SDS011;5778;47.856;12.154;2023-04-08T06:52:05;10.13;;;9.10;;
11443;SDS011;5778;47.856;12.154;2023-04-08T06:54:36;9.63;;;8.10;;
11443;SDS011;5778;47.856;12.154;2023-04-08T06:57:04;10.40;;;7.90;;
11443;SDS011;5778;47.856;12.154;2023-04-08T06:59:31;9.50;;;8.50;;
11443;SDS011;5778;47.856;12.154;2023-04-08T07:01:59;10.97;;;8.67;;
11443;SDS011;5778;47.856;12.154;2023-04-08T07:07:19;10.70;;;9.30;;
11443;SDS011;5778;47.856;12.154;2023-04-08T07:09:48;10.00;;;8.73;;
11443;SDS011;5778;47.856;12.154;2023-04-08T07:12:15;9.57;;;8.50;;
11443;SDS011;5778;47.856;12.154;2023-04-08T07:14:54;11.10;;;10.00;;
11443;SDS011;5778;47.856;12.154;2023-04-08T07:17:23;12.57;;;10.03;;
11443;SDS011;5778;47.856;12.154;2023-04-08T07:19:50;11.80;;;10.60;;
11443;SDS011;5778;47.856;12.154;2023-04-08T07:22:17;10.90;;;9.80;;
11443;SDS011;5778;47.856;12.154;2023-04-08T07:24:54;12.63;;;10.93;;
11443;SDS011;5778;47.856;12.154;2023-04-08T07:27:21;13.33;;;10.80;;
11443;SDS011;5778;47.856;12.154;2023-04-08T07:29:51;12.30;;;11.00;;
11443;SDS011;5778;47.856;12.154;2023-04-08T07:32:18;14.63;;;11.50;;
11443;SDS011;5778;47.856;12.154;2023-04-08T07:37:57;14.63;;;11.27;;
11443;SDS011;5778;47.856;12.154;2023-04-08T07:40:24;13.10;;;11.13;;
11443;SDS011;5778;47.856;12.154;2023-04-08T07:42:58;13.97;;;12.47;;
11443;SDS011;5778;47.856;12.154;2023-04-08T07:45:26;14.10;;;12.47;;
11443;SDS011;5778;47.856;12.154;2023-04-08T07:47:53;16.10;;;12.93;;
11443;SDS011;5778;47.856;12.154;2023-04-08T07:50:20;15.40;;;13.00;;
11443;SDS011;5778;47.856;12.154;2023-04-08T07:52:48;16.10;;;13.97;;
11443;SDS011;5778;47.856;12.154;2023-04-08T07:55:19;14.70;;;13.17;;
11443;SDS011;5778;47.856;12.154;2023-04-08T07:57:45;15.67;;;13.40;;
11443;SDS011;5778;47.856;12.154;2023-04-08T08:00:13;17.30;;;14.73;;
11443;SDS011;5778;47.856;12.154;2023-04-08T08:02:47;17.73;;;15.17;;
11443;SDS011;5778;47.856;12.154;2023-04-08T08:05:13;17.30;;;14.93;;
11443;SDS011;5778;47.856;12.154;2023-04-08T08:07:40;18.67;;;14.93;;
11443;SDS011;5778;47.856;12.154;2023-04-08T08:10:07;18.57;;;15.87;;
11443;SDS011;5778;47.856;12.154;2023-04-08T08:12:37;18.53;;;15.73;;
11443;SDS011;5778;47.856;12.154;2023-04-08T08:15:06;19.03;;;15.70;;
11443;SDS011;5778;47.856;12.154;2023-04-08T08:17:34;19.03;;;16.80;;
11443;SDS011;5778;47.856;12.154;2023-04-08T08:20:01;19.27;;;16.13;;
11443;SDS011;5778;47.856;12.154;2023-04-08T08:22:29;18.80;;;16.23;;
11443;SDS011;5778;47.856;12.154;2023-04-08T08:25:09;20.07;;;16.70;;
11443;SDS011;5778;47.856;12.154;2023-04-08T08:27:37;22.20;;;17.87;;
11443;SDS011;5778;47.856;12.154;2023-04-08T08:30:06;20.63;;;16.73;;
11443;SDS011;5778;47.856;12.154;2023-04-08T08:32:34;19.97;;;17.07;;
11443;SDS011;5778;47.856;12.154;2023-04-08T08:35:14;21.87;;;18.30;;
11443;SDS011;5778;47.856;12.154;2023-04-08T08:37:41;22.57;;;17.97;;
11443;SDS011;5778;47.856;12.154;2023-04-08T08:40:08;23.80;;;19.20;;
11443;SDS011;5778;47.856;12.154;2023-04-08T08:42:35;21.13;;;17.27;;
11443;SDS011;5778;47.856;12.154;2023-04-08T08:45:06;19.23;;;16.40;;
11443;SDS011;5778;47.856;12.154;2023-04-08T08:47:34;19.97;;;15.70;;
11443;SDS011;5778;47.856;12.154;2023-04-08T08:50:01;18.37;;;15.97;;
11443;SDS011;5778;47.856;12.154;2023-04-08T08:52:28;18.83;;;15.67;;
11443;SDS011;5778;47.856;12.154;2023-04-08T08:54:58;17.93;;;15.80;;
11443;SDS011;5778;47.856;12.154;2023-04-08T08:57:25;18.57;;;15.23;;
11443;SDS011;5778;47.856;12.154;2023-04-08T08:59:53;16.07;;;14.30;;
11443;SDS011;5778;47.856;12.154;2023-04-08T09:02:24;16.93;;;15.13;;
11443;SDS011;5778;47.856;12.154;2023-04-08T09:04:57;17.90;;;14.90;;
11443;SDS011;5778;47.856;12.154;2023-04-08T09:07:25;19.80;;;16.20;;
11443;SDS011;5778;47.856;12.154;2023-04-08T09:09:54;19.47;;;15.30;;
11443;SDS011;5778;47.856;12.154;2023-04-08T09:12:21;18.30;;;15.67;;
11443;SDS011;5778;47.856;12.154;2023-04-08T09:17:39;19.13;;;16.20;;
11443;SDS011;5778;47.856;12.154;2023-04-08T09:20:07;17.73;;;15.93;;
11443;SDS011;5778;47.856;12.154;2023-04-08T09:25:25;19.63;;;16.93;;
11443;SDS011;5778;47.856;12.154;2023-04-08T09:27:53;20.33;;;17.47;;
11443;SDS011;5778;47.856;12.154;2023-04-08T09:30:24;17.90;;;16.07;;
11443;SDS011;5778;47.856;12.154;2023-04-08T09:32:54;19.87;;;16.73;;
11443;SDS011;5778;47.856;12.154;2023-04-08T09:35:22;18.73;;;15.90;;
11443;SDS011;5778;47.856;12.154;2023-04-08T09:37:50;19.40;;;16.83;;
11443;SDS011;5778;47.856;12.154;2023-04-08T09:40:17;19.87;;;16.23;;
11443;SDS011;5778;47.856;12.154;2023-04-08T09:42:44;18.37;;;15.97;;
11443;SDS011;5778;47.856;12.154;2023-04-08T09:45:15;18.37;;;15.20;;
11443;SDS011;5778;47.856;12.154;2023-04-08T09:47:49;20.23;;;16.90;;
11443;SDS011;5778;47.856;12.154;2023-04-08T09:50:23;19.53;;;15.87;;
11443;SDS011;5778;47.856;12.154;2023-04-08T09:52:56;20.67;;;17.53;;
11443;SDS011;5778;47.856;12.154;2023-04-08T09:55:26;19.20;;;16.67;;
11443;SDS011;5778;47.856;12.154;2023-04-08T09:58:00;19.60;;;16.73;;
11443;SDS011;5778;47.856;12.154;2023-04-08T10:00:31;22.07;;;17.30;;
11443;SDS011;5778;47.856;12.154;2023-04-08T10:03:04;21.57;;;16.97;;
11443;SDS011;5778;47.856;12.154;2023-04-08T10:05:36;18.60;;;16.57;;
11443;SDS011;5778;47.856;12.154;2023-04-08T10:08:04;20.03;;;16.93;;
11443;SDS011;5778;47.856;12.154;2023-04-08T10:10:32;21.73;;;17.57;;
11443;SDS011;5778;47.856;12.154;2023-04-08T10:13:01;21.30;;;17.60;;
11443;SDS011;5778;47.856;12.154;2023-04-08T10:15:29;18.90;;;16.60;;
11443;SDS011;5778;47.856;12.154;2023-04-08T10:20:55;19.60;;;17.53;;
11443;SDS011;5778;47.856;12.154;2023-04-08T10:23:51;22.07;;;18.23;;
11443;SDS011;5778;47.856;12.154;2023-04-08T10:32:08;23.30;;;18.87;;
11443;SDS011;5778;47.856;12.154;2023-04-08T10:34:53;21.30;;;17.37;;
11443;SDS011;5778;47.856;12.154;2023-04-08T10:37:21;19.87;;;16.77;;
11443;SDS011;5778;47.856;12.154;2023-04-08T10:39:48;19.90;;;17.67;;
11443;SDS011;5778;47.856;12.154;2023-04-08T10:42:17;23.53;;;19.40;;
11443;SDS011;5778;47.856;12.154;2023-04-08T10:44:44;21.80;;;19.10;;
11443;SDS011;5778;47.856;12.154;2023-04-08T10:47:12;21.37;;;19.10;;
11443;SDS011;5778;47.856;12.154;2023-04-08T10:49:39;18.90;;;16.53;;
11443;SDS011;5778;47.856;12.154;2023-04-08T10:52:07;21.07;;;17.73;;
11443;SDS011;5778;47.856;12.154;2023-04-08T10:54:38;19.77;;;17.67;;
11443;SDS011;5778;47.856;12.154;2023-04-08T10:57:12;19.30;;;17.20;;
11443;SDS011;5778;47.856;12.154;2023-04-08T10:59:39;22.37;;;18.03;;
11443;SDS011;5778;47.856;12.154;2023-04-08T11:02:11;22.90;;;18.07;;
11443;SDS011;5778;47.856;12.154;2023-04-08T11:04:40;20.97;;;18.37;;
11443;SDS011;5778;47.856;12.154;2023-04-08T11:07:07;22.90;;;18.93;;
11443;SDS011;5778;47.856;12.154;2023-04-08T11:09:34;21.03;;;18.43;;
11443;SDS011;5778;47.856;12.154;2023-04-08T11:12:03;21.83;;;18.17;;
11443;SDS011;5778;47.856;12.154;2023-04-08T11:14:30;21.00;;;18.73;;
11443;SDS011;5778;47.856;12.154;2023-04-08T11:16:58;20.43;;;17.13;;
11443;SDS011;5778;47.856;12.154;2023-04-08T11:19:25;23.17;;;19.07;;
11443;SDS011;5778;47.856;12.154;2023-04-08T11:21:55;19.73;;;17.60;;
11443;SDS011;5778;47.856;12.154;2023-04-08T11:24:24;20.80;;;18.53;;
11443;SDS011;5778;47.856;12.154;2023-04-08T11:26:51;22.80;;;19.33;;
11443;SDS011;5778;47.856;12.154;2023-04-08T11:29:20;24.03;;;19.67;;
11443;SDS011;5778;47.856;12.154;2023-04-08T11:31:49;21.33;;;19.00;;
11443;SDS011;5778;47.856;12.154;2023-04-08T11:34:20;22.97;;;20.20;;
11443;SDS011;5778;47.856;12.154;2023-04-08T11:36:48;22.33;;;19.63;;
11443;SDS011;5778;47.856;12.154;2023-04-08T11:39:15;23.30;;;18.83;;
11443;SDS011;5778;47.856;12.154;2023-04-08T11:41:42;20.83;;;18.27;;
11443;SDS011;5778;47.856;12.154;2023-04-08T11:44:09;25.30;;;19.40;;
11443;SDS011;5778;47.856;12.154;2023-04-08T11:46:37;21.10;;;18.77;;
11443;SDS011;5778;47.856;12.154;2023-04-08T11:49:05;22.27;;;19.90;;
11443;SDS011;5778;47.856;12.154;2023-04-08T11:54:26;22.90;;;20.13;;
11443;SDS011;5778;47.856;12.154;2023-04-08T11:56:54;21.27;;;18.97;;
11443;SDS011;5778;47.856;12.154;2023-04-08T11:59:24;22.87;;;19.87;;
11443;SDS011;5778;47.856;12.154;2023-04-08T12:01:52;23.17;;;19.87;;
11443;SDS011;5778;47.856;12.154;2023-04-08T12:04:19;45.03;;;32.67;;
11443;SDS011;5778;47.856;12.154;2023-04-08T12:06:46;35.23;;;26.43;;
11443;SDS011;5778;47.856;12.154;2023-04-08T12:09:13;30.73;;;24.57;;
11443;SDS011;5778;47.856;12.154;2023-04-08T12:11:41;29.97;;;24.00;;
11443;SDS011;5778;47.856;12.154;2023-04-08T12:14:09;27.27;;;24.00;;
11443;SDS011;5778;47.856;12.154;2023-04-08T12:16:36;25.90;;;23.03;;
11443;SDS011;5778;47.856;12.154;2023-04-08T12:19:04;60.70;;;46.07;;
11443;SDS011;5778;47.856;12.154;2023-04-08T12:21:31;66.77;;;59.50;;
11443;SDS011;5778;47.856;12.154;2023-04-08T12:24:00;27.00;;;24.17;;
11443;SDS011;5778;47.856;12.154;2023-04-08T12:26:27;24.70;;;21.47;;
11443;SDS011;5778;47.856;12.154;2023-04-08T12:28:55;23.03;;;20.03;;
11443;SDS011;5778;47.856;12.154;2023-04-08T12:31:23;25.87;;;23.10;;
11443;SDS011;5778;47.856;12.154;2023-04-08T12:33:51;25.03;;;22.33;;
11443;SDS011;5778;47.856;12.154;2023-04-08T12:36:20;24.37;;;21.73;;
11443;SDS011;5778;47.856;12.154;2023-04-08T12:38:46;31.80;;;27.63;;
11443;SDS011;5778;47.856;12.154;2023-04-08T12:41:14;28.07;;;23.60;;
11443;SDS011;5778;47.856;12.154;2023-04-08T12:43:41;26.53;;;23.07;;
11443;SDS011;5778;47.856;12.154;2023-04-08T12:46:08;30.33;;;23.17;;
11443;SDS011;5778;47.856;12.154;2023-04-08T12:48:35;26.33;;;23.13;;
11443;SDS011;5778;47.856;12.154;2023-04-08T12:51:02;23.40;;;20.90;;
11443;SDS011;5778;47.856;12.154;2023-04-08T12:53:30;25.37;;;21.57;;
11443;SDS011;5778;47.856;12.154;2023-04-08T12:55:57;23.80;;;21.20;;
11443;SDS011;5778;47.856;12.154;2023-04-08T12:58:24;22.17;;;19.77;;
11443;SDS011;5778;47.856;12.154;2023-04-08T13:00:51;22.70;;;18.97;;
11443;SDS011;5778;47.856;12.154;2023-04-08T13:03:18;21.00;;;18.70;;
11443;SDS011;5778;47.856;12.154;2023-04-08T13:05:45;22.53;;;19.10;;
11443;SDS011;5778;47.856;12.154;2023-04-08T13:08:12;21.00;;;18.83;;
11443;SDS011;5778;47.856;12.154;2023-04-08T13:10:43;22.13;;;19.80;;
11443;SDS011;5778;47.856;12.154;2023-04-08T13:13:10;21.80;;;19.57;;
11443;SDS011;5778;47.856;12.154;2023-04-08T13:15:38;22.20;;;19.90;;
11443;SDS011;5778;47.856;12.154;2023-04-08T13:18:05;21.10;;;18.77;;
11443;SDS011;5778;47.856;12.154;2023-04-08T13:20:32;22.23;;;19.87;;
11443;SDS011;5778;47.856;12.154;2023-04-08T13:22:59;27.83;;;20.87;;
11443;SDS011;5778;47.856;12.154;2023-04-08T13:25:26;25.70;;;19.97;;
11443;SDS011;5778;47.856;12.154;2023-04-08T13:27:55;19.50;;;17.50;;
11443;SDS011;5778;47.856;12.154;2023-04-08T13:30:22;19.73;;;17.63;;
11443;SDS011;5778;47.856;12.154;2023-04-08T13:32:48;21.47;;;19.17;;
11443;SDS011;5778;47.856;12.154;2023-04-08T13:35:15;20.63;;;18.03;;
11443;SDS011;5778;47.856;12.154;2023-04-08T13:37:44;21.67;;;19.03;;
11443;SDS011;5778;47.856;12.154;2023-04-08T13:40:11;21.03;;;18.80;;
11443;SDS011;5778;47.856;12.154;2023-04-08T13:42:39;20.60;;;18.30;;
11443;SDS011;5778;47.856;12.154;2023-04-08T13:45:07;22.80;;;19.93;;
11443;SDS011;5778;47.856;12.154;2023-04-08T13:47:35;20.97;;;18.77;;
11443;SDS011;5778;47.856;12.154;2023-04-08T13:50:03;19.83;;;17.73;;
11443;SDS011;5778;47.856;12.154;2023-04-08T13:52:31;19.00;;;17.00;;
11443;SDS011;5778;47.856;12.154;2023-04-08T13:54:59;17.90;;;16.10;;
11443;SDS011;5778;47.856;12.154;2023-04-08T13:57:26;18.80;;;16.90;;
11443;SDS011;5778;47.856;12.154;2023-04-08T13:59:53;18.57;;;16.67;;
11443;SDS011;5778;47.856;12.154;2023-04-08T14:02:23;18.50;;;16.50;;
11443;SDS011;5778;47.856;12.154;2023-04-08T14:04:51;17.53;;;15.73;;
11443;SDS011;5778;47.856;12.154;2023-04-08T14:07:18;17.90;;;16.03;;
11443;SDS011;5778;47.856;12.154;2023-04-08T14:09:46;18.10;;;15.87;;
11443;SDS011;5778;47.856;12.154;2023-04-08T14:12:13;18.77;;;15.90;;
11443;SDS011;5778;47.856;12.154;2023-04-08T14:14:40;17.07;;;15.37;;
11443;SDS011;5778;47.856;12.154;2023-04-08T14:17:07;16.87;;;15.17;;
11443;SDS011;5778;47.856;12.154;2023-04-08T14:19:35;18.70;;;16.73;;
11443;SDS011;5778;47.856;12.154;2023-04-08T14:22:03;20.07;;;17.77;;
11443;SDS011;5778;47.856;12.154;2023-04-08T14:24:31;18.07;;;16.20;;
11443;SDS011;5778;47.856;12.154;2023-04-08T14:26:58;18.30;;;16.47;;
11443;SDS011;5778;47.856;12.154;2023-04-08T14:29:26;17.90;;;16.00;;
11443;SDS011;5778;47.856;12.154;2023-04-08T14:31:54;17.73;;;15.93;;
11443;SDS011;5778;47.856;12.154;2023-04-08T14:34:23;14.80;;;13.30;;
11443;SDS011;5778;47.856;12.154;2023-04-08T14:36:51;10.83;;;9.73;;
11443;SDS011;5778;47.856;12.154;2023-04-08T14:39:19;12.33;;;11.03;;
11443;SDS011;5778;47.856;12.154;2023-04-08T14:41:46;12.30;;;10.60;;
11443;SDS011;5778;47.856;12.154;2023-04-08T14:44:13;11.10;;;9.93;;
11443;SDS011;5778;47.856;12.154;2023-04-08T14:46:39;10.40;;;9.40;;
11443;SDS011;5778;47.856;12.154;2023-04-08T14:49:06;10.50;;;9.50;;
11443;SDS011;5778;47.856;12.154;2023-04-08T14:51:34;10.43;;;9.43;;
11443;SDS011;5778;47.856;12.154;2023-04-08T14:54:03;9.70;;;8.80;;
11443;SDS011;5778;47.856;12.154;2023-04-08T14:56:31;9.90;;;8.97;;
11443;SDS011;5778;47.856;12.154;2023-04-08T14:58:57;10.83;;;9.73;;
11443;SDS011;5778;47.856;12.154;2023-04-08T15:01:24;11.00;;;9.90;;
11443;SDS011;5778;47.856;12.154;2023-04-08T15:03:52;11.30;;;10.20;;
11443;SDS011;5778;47.856;12.154;2023-04-08T15:06:19;11.93;;;10.67;;
11443;SDS011;5778;47.856;12.154;2023-04-08T15:08:48;11.87;;;10.60;;
11443;SDS011;5778;47.856;12.154;2023-04-08T15:11:16;11.83;;;10.37;;